createdAt,value
2018-04-02T00:01:28.553Z,99.97
2018-04-02T00:04:00.143Z,106.97
2018-04-02T00:06:29.137Z,113.20
2018-04-02T00:08:57.711Z,117.37
2018-04-02T00:11:27.145Z,119.62
2018-04-02T00:13:55.585Z,111.47
2018-04-02T00:16:25.650Z,100.15
2018-04-02T00:18:54.199Z,112.53
2018-04-02T00:21:23.038Z,94.18
2018-04-02T00:23:51.453Z,97.35
2018-04-02T00:26:20.918Z,110.85
2018-04-02T00:28:50.623Z,101.93
2018-04-02T00:31:19.986Z,117.65
2018-04-02T00:33:49.683Z,104.60
2018-04-02T00:36:18.668Z,103.82
2018-04-02T00:38:46.926Z,96.97
2018-04-02T00:41:16.114Z,108.40
2018-04-02T00:43:46.950Z,96.30
2018-04-02T00:46:15.742Z,106.78
2018-04-02T00:48:44.176Z,92.35
2018-04-02T00:51:14.020Z,114.55
2018-04-02T00:53:42.298Z,96.53
2018-04-02T00:56:10.656Z,105.18
2018-04-02T00:58:39.475Z,94.05
2018-04-02T01:01:07.886Z,88.57
2018-04-02T01:03:36.342Z,96.97
2018-04-02T01:06:04.898Z,94.45
2018-04-02T01:08:33.687Z,97.28
2018-04-02T01:11:03.506Z,91.03
2018-04-02T01:13:32.253Z,102.43
2018-04-02T01:16:03.161Z,99.15
2018-04-02T01:18:32.089Z,98.45
2018-04-02T01:21:00.084Z,92.00
2018-04-02T01:23:28.382Z,108.28
2018-04-02T01:25:57.732Z,102.93
2018-04-02T01:28:26.257Z,97.28
2018-04-02T01:30:55.104Z,94.72
2018-04-02T01:33:24.078Z,102.82
2018-04-02T01:35:53.403Z,83.57
2018-04-02T01:38:22.246Z,81.63
2018-04-02T01:40:50.656Z,91.20
2018-04-02T01:43:19.025Z,83.72
2018-04-02T01:45:47.990Z,90.15
2018-04-02T01:48:16.826Z,86.25
2018-04-02T01:50:45.476Z,96.10
2018-04-02T01:53:14.162Z,89.90
2018-04-02T01:55:42.409Z,94.60
2018-04-02T01:58:11.734Z,82.15
2018-04-02T02:00:40.339Z,88.00
2018-04-02T02:03:08.291Z,78.62
2018-04-02T02:05:38.734Z,81.45
2018-04-02T02:08:07.559Z,90.35
2018-04-02T02:10:36.181Z,80.40
2018-04-02T02:13:04.638Z,88.65
2018-04-02T02:15:33.573Z,102.90
2018-04-02T02:18:01.508Z,79.55
2018-04-02T02:20:29.545Z,87.80
2018-04-02T02:22:57.501Z,93.37
2018-04-02T02:25:25.467Z,86.00
2018-04-02T02:27:53.375Z,91.57
2018-04-02T02:30:21.348Z,85.00
2018-04-02T02:32:50.035Z,75.82
2018-04-02T02:35:18.000Z,84.43
2018-04-02T02:37:45.930Z,83.62
2018-04-02T02:40:13.896Z,78.68
2018-04-02T02:42:41.812Z,85.20
2018-04-02T02:45:10.612Z,78.03
2018-04-02T02:47:39.329Z,77.22
2018-04-02T02:50:07.288Z,74.32
2018-04-02T02:52:35.202Z,78.57
2018-04-02T02:55:03.154Z,83.95
2018-04-02T02:57:31.078Z,84.22
2018-04-02T02:59:59.823Z,78.03
2018-04-02T03:02:27.717Z,78.12
2018-04-02T03:04:55.683Z,76.03
2018-04-02T03:07:23.597Z,76.55
2018-04-02T03:09:51.564Z,86.30
2018-04-02T03:12:19.464Z,83.65
2018-04-02T03:14:47.426Z,93.22
2018-04-02T03:17:15.343Z,98.20
2018-04-02T03:19:43.294Z,80.43
2018-04-02T03:22:11.206Z,112.40
2018-04-02T03:24:39.175Z,111.95
2018-04-02T03:27:07.844Z,93.20
2018-04-02T03:29:36.578Z,116.75
2018-04-02T03:32:04.481Z,105.22
2018-04-02T03:34:32.427Z,95.15
2018-04-02T03:37:00.333Z,103.18
2018-04-02T03:39:28.297Z,99.22
2018-04-02T03:41:56.212Z,98.25
2018-04-02T03:44:24.116Z,91.00
2018-04-02T03:46:52.093Z,108.03
2018-04-02T03:49:19.995Z,92.00
2018-04-02T03:51:48.718Z,133.30
2018-04-02T03:54:16.625Z,199.55
2018-04-02T03:56:44.566Z,87.85
2018-04-02T03:59:12.479Z,113.10
2018-04-02T04:01:40.447Z,134.40
2018-04-02T04:04:08.388Z,95.18
2018-04-02T04:06:36.344Z,84.50
2018-04-02T04:09:04.339Z,92.10
2018-04-02T04:11:32.291Z,127.32
2018-04-02T04:14:00.191Z,148.02
2018-04-02T04:16:28.142Z,73.03
2018-04-02T04:18:56.048Z,129.20
2018-04-02T04:21:24.776Z,87.53
2018-04-02T04:23:52.687Z,77.37
2018-04-02T04:26:20.652Z,118.45
2018-04-02T04:28:48.547Z,83.20
2018-04-02T04:31:17.310Z,86.95
2018-04-02T04:33:45.215Z,94.95
2018-04-02T04:36:13.186Z,72.47
2018-04-02T04:38:41.871Z,86.72
2018-04-02T04:41:10.591Z,73.43
2018-04-02T04:43:38.488Z,70.53
2018-04-02T04:46:06.452Z,70.65
2018-04-02T04:48:34.373Z,74.20
2018-04-02T04:51:02.410Z,79.00
2018-04-02T04:53:30.325Z,71.93
2018-04-02T04:55:58.280Z,75.43
2018-04-02T04:58:26.932Z,73.22
2018-04-02T05:00:54.923Z,115.90
2018-04-02T05:03:23.596Z,104.53
2018-04-02T05:05:51.607Z,67.10
2018-04-02T05:08:19.513Z,73.60
2018-04-02T05:10:47.498Z,75.18
2018-04-02T05:13:15.461Z,71.68
2018-04-02T05:15:43.422Z,78.07
2018-04-02T05:18:11.311Z,72.15
2018-04-02T05:20:39.270Z,67.47
2018-04-02T05:23:07.163Z,67.93
2018-04-02T05:25:35.115Z,78.95
2018-04-02T05:28:03.025Z,73.25
2018-04-02T05:30:30.990Z,75.18
2018-04-02T05:32:59.664Z,87.50
2018-04-02T05:35:28.443Z,65.47
2018-04-02T05:37:56.358Z,83.03
2018-04-02T05:40:24.343Z,64.25
2018-04-02T05:42:52.252Z,64.90
2018-04-02T05:45:20.250Z,63.92
2018-04-02T05:47:48.198Z,68.10
2018-04-02T05:50:16.163Z,75.65
2018-04-02T05:52:44.075Z,71.78
2018-04-02T05:55:12.043Z,68.30
2018-04-02T05:57:39.985Z,64.85
2018-04-02T06:00:08.780Z,65.43
2018-04-02T06:02:37.437Z,68.75
2018-04-02T06:05:05.402Z,60.92
2018-04-02T06:07:33.299Z,59.72
2018-04-02T06:10:01.267Z,54.42
2018-04-02T06:12:29.937Z,54.80
2018-04-02T06:14:57.841Z,62.20
2018-04-02T06:17:25.804Z,61.90
2018-04-02T06:19:54.491Z,64.87
2018-04-02T06:22:23.226Z,59.30
2018-04-02T06:24:51.132Z,55.45
2018-04-02T06:27:19.121Z,56.63
2018-04-02T06:29:47.783Z,56.85
2018-04-02T06:32:15.756Z,59.65
2018-04-02T06:34:43.661Z,62.47
2018-04-02T06:37:11.681Z,58.03
2018-04-02T06:39:39.591Z,55.65
2018-04-02T06:42:08.372Z,60.78
2018-04-02T06:44:37.043Z,67.55
2018-04-02T06:47:04.991Z,61.47
2018-04-02T06:49:32.965Z,64.50
2018-04-02T06:52:01.807Z,54.97
2018-04-02T06:54:32.391Z,58.10
2018-04-02T06:57:03.646Z,62.95
2018-04-02T06:59:34.794Z,59.60
2018-04-02T07:02:03.728Z,57.20
2018-04-02T07:04:34.265Z,59.28
2018-04-02T07:07:02.440Z,60.35
2018-04-02T07:09:30.392Z,59.10
2018-04-02T07:11:59.117Z,55.47
2018-04-02T07:14:27.011Z,57.38
2018-04-02T07:16:54.951Z,54.42
2018-04-02T07:19:22.834Z,52.58
2018-04-02T07:21:50.781Z,56.63
2018-04-02T07:24:18.662Z,47.95
2018-04-02T07:26:46.591Z,49.70
2018-04-02T07:29:15.248Z,46.15
2018-04-02T07:31:43.183Z,48.33
2018-04-02T07:34:11.844Z,40.95
2018-04-02T07:36:39.793Z,43.83
2018-04-02T07:39:08.499Z,45.03
2018-04-02T07:41:36.460Z,41.50
2018-04-02T07:44:04.387Z,35.88
2018-04-02T07:46:32.330Z,33.90
2018-04-02T07:49:00.281Z,35.10
2018-04-02T07:51:33.193Z,36.53
2018-04-02T07:54:01.098Z,40.07
2018-04-02T07:56:29.067Z,28.67
2018-04-02T07:58:56.980Z,33.63
2018-04-02T08:01:24.956Z,32.90
2018-04-02T08:03:52.847Z,31.43
2018-04-02T08:06:20.798Z,32.73
2018-04-02T08:08:48.729Z,28.80
2018-04-02T08:11:16.729Z,30.43
2018-04-02T08:13:44.645Z,31.50
2018-04-02T08:16:12.638Z,30.00
2018-04-02T08:18:41.344Z,32.70
2018-04-02T08:21:10.076Z,34.13
2018-04-02T08:23:38.057Z,34.10
2018-04-02T08:26:06.027Z,33.53
2018-04-02T08:28:34.652Z,37.33
2018-04-02T08:31:02.628Z,35.37
2018-04-02T08:33:31.350Z,30.07
2018-04-02T08:36:01.089Z,32.87
2018-04-02T08:38:29.978Z,34.53
2018-04-02T08:40:57.963Z,27.20
2018-04-02T08:43:26.020Z,34.53
2018-04-02T08:45:53.945Z,27.07
2018-04-02T08:48:22.668Z,25.67
2018-04-02T08:50:50.592Z,25.50
2018-04-02T08:53:19.319Z,27.50
2018-04-02T08:55:47.251Z,29.00
2018-04-02T08:58:15.993Z,28.37
2018-04-02T09:00:43.938Z,27.17
2018-04-02T09:03:12.675Z,26.73
2018-04-02T09:05:40.659Z,22.03
2018-04-02T09:08:09.389Z,24.17
2018-04-02T09:10:37.310Z,24.67
2018-04-02T09:13:06.556Z,24.23
2018-04-02T09:15:34.471Z,27.13
2018-04-02T09:18:02.479Z,19.10
2018-04-02T09:20:30.386Z,23.83
2018-04-02T09:22:58.392Z,20.67
2018-04-02T09:25:26.280Z,21.73
2018-04-02T09:27:55.107Z,21.77
2018-04-02T09:30:23.007Z,23.40
2018-04-02T09:32:51.010Z,21.33
2018-04-02T09:35:19.681Z,17.60
2018-04-02T09:37:47.869Z,18.67
2018-04-02T09:40:16.860Z,18.47
2018-04-02T09:42:45.569Z,21.90
2018-04-02T09:45:13.452Z,18.50
2018-04-02T09:47:41.437Z,16.33
2018-04-02T09:50:09.338Z,13.23
2018-04-02T09:52:37.281Z,14.77
2018-04-02T09:55:05.452Z,12.63
2018-04-02T09:57:33.395Z,12.30
2018-04-02T10:00:01.269Z,17.20
2018-04-02T10:05:28.003Z,9.07
2018-04-02T10:07:56.745Z,11.43
2018-04-02T10:10:24.645Z,9.83
2018-04-02T10:12:53.374Z,8.50
2018-04-02T10:15:21.253Z,9.47
2018-04-02T10:17:49.254Z,7.67
2018-04-02T10:20:17.205Z,11.37
2018-04-02T10:22:45.155Z,10.63
2018-04-02T10:25:13.042Z,6.83
2018-04-02T10:27:40.983Z,6.60
2018-04-02T10:30:09.644Z,8.87
2018-04-02T10:32:37.589Z,9.37
2018-04-02T10:35:05.483Z,6.37
2018-04-02T10:37:33.419Z,6.57
2018-04-02T10:40:06.952Z,6.83
2018-04-02T10:48:40.675Z,7.63
2018-04-02T10:51:08.572Z,6.67
2018-04-02T10:53:36.525Z,8.10
2018-04-02T10:56:04.424Z,8.33
2018-04-02T10:58:33.131Z,5.53
2018-04-02T11:01:01.027Z,5.30
2018-04-02T11:03:28.961Z,8.40
2018-04-02T11:05:56.892Z,7.07
2018-04-02T11:08:24.883Z,7.27
2018-04-02T11:10:52.838Z,6.77
2018-04-02T11:13:20.794Z,6.00
2018-04-02T11:15:48.691Z,6.47
2018-04-02T11:18:17.415Z,7.97
2018-04-02T11:20:45.430Z,7.57
2018-04-02T11:23:13.408Z,6.53
2018-04-02T11:25:41.305Z,5.37
2018-04-02T11:28:09.272Z,6.03
2018-04-02T11:30:37.939Z,4.87
2018-04-02T11:33:05.892Z,5.80
2018-04-02T11:35:33.826Z,8.47
2018-04-02T11:38:01.824Z,6.57
2018-04-02T11:40:29.773Z,5.43
2018-04-02T11:42:57.804Z,5.47
2018-04-02T11:45:25.702Z,7.70
2018-04-02T11:47:53.665Z,6.07
2018-04-02T11:50:21.576Z,4.87
2018-04-02T11:52:49.538Z,5.20
2018-04-02T11:55:17.442Z,7.07
2018-04-02T11:57:45.406Z,5.03
2018-04-02T12:00:13.371Z,5.80
2018-04-02T12:02:41.325Z,5.63
2018-04-02T12:05:09.242Z,5.10
2018-04-02T12:07:37.218Z,7.10
2018-04-02T12:10:05.114Z,6.40
2018-04-02T12:12:33.076Z,6.30
2018-04-02T12:15:01.055Z,6.30
2018-04-02T12:17:29.002Z,6.33
2018-04-02T12:19:56.891Z,7.40
2018-04-02T12:22:24.831Z,5.10
2018-04-02T12:24:52.726Z,6.57
2018-04-02T12:27:20.667Z,6.70
2018-04-02T12:29:49.318Z,5.73
2018-04-02T12:32:17.304Z,5.23
2018-04-02T12:34:45.972Z,4.30
2018-04-02T12:37:13.916Z,5.33
2018-04-02T12:39:41.828Z,6.07
2018-04-02T12:42:09.777Z,6.10
2018-04-02T12:44:37.681Z,5.27
2018-04-02T12:47:05.664Z,5.83
2018-04-02T12:49:34.385Z,6.43
2018-04-02T12:52:02.370Z,7.57
2018-04-02T12:54:30.256Z,9.90
2018-04-02T12:56:58.167Z,6.30
2018-04-02T12:59:26.896Z,5.80
2018-04-02T13:01:54.773Z,4.40
2018-04-02T13:04:22.712Z,9.73
2018-04-02T13:06:50.594Z,6.27
2018-04-02T13:09:18.527Z,6.03
2018-04-02T13:11:47.196Z,5.70
2018-04-02T13:14:15.138Z,8.50
2018-04-02T13:16:43.055Z,6.37
2018-04-02T13:19:11.832Z,5.53
2018-04-02T13:21:41.537Z,6.90
2018-04-02T13:24:09.508Z,5.30
2018-04-02T13:26:38.194Z,6.10
2018-04-02T13:29:06.191Z,6.30
2018-04-02T13:31:34.146Z,9.70
2018-04-02T13:34:02.888Z,7.40
2018-04-02T13:36:30.805Z,8.40
2018-04-02T13:38:58.785Z,6.60
2018-04-02T13:41:26.691Z,7.40
2018-04-02T13:43:54.627Z,12.60
2018-04-02T13:46:22.545Z,8.33
2018-04-02T13:48:50.501Z,9.30
2018-04-02T13:51:18.416Z,7.37
2018-04-02T13:53:47.144Z,7.40
2018-04-02T13:56:15.041Z,7.63
2018-04-02T13:58:43.005Z,7.53
2018-04-02T14:01:10.896Z,6.50
2018-04-02T14:03:38.902Z,6.50
2018-04-02T14:06:06.819Z,7.93
2018-04-02T14:08:34.790Z,6.40
2018-04-02T14:11:02.743Z,7.13
2018-04-02T14:13:30.675Z,5.43
2018-04-02T14:15:59.566Z,5.70
2018-04-02T14:18:28.264Z,5.50
2018-04-02T14:20:56.206Z,10.70
2018-04-02T14:23:26.689Z,6.13
2018-04-02T14:25:54.623Z,11.50
2018-04-02T14:28:22.576Z,7.60
2018-04-02T14:30:51.327Z,8.47
2018-04-02T14:33:23.086Z,5.87
2018-04-02T14:35:51.064Z,9.10
2018-04-02T14:38:19.082Z,7.50
2018-04-02T14:40:47.771Z,8.63
2018-04-02T14:43:16.507Z,6.23
2018-04-02T14:45:44.430Z,7.40
2018-04-02T14:48:13.138Z,6.30
2018-04-02T14:50:41.112Z,7.00
2018-04-02T14:53:09.634Z,4.57
2018-04-02T14:55:38.329Z,6.03
2018-04-02T14:58:06.275Z,4.50
2018-04-02T15:00:34.210Z,5.90
2018-04-02T15:03:03.917Z,4.63
2018-04-02T15:05:32.682Z,4.07
2018-04-02T15:08:01.482Z,3.63
2018-04-02T15:10:29.368Z,6.40
2018-04-02T15:12:57.338Z,5.80
2018-04-02T15:15:25.235Z,5.33
2018-04-02T15:17:53.215Z,4.30
2018-04-02T15:20:21.156Z,4.77
2018-04-02T15:22:49.652Z,6.20
2018-04-02T15:25:17.548Z,5.30
2018-04-02T15:27:50.707Z,5.07
2018-04-02T15:30:28.896Z,6.80
2018-04-02T15:32:59.271Z,3.00
2018-04-02T15:35:27.179Z,3.00
2018-04-02T15:37:55.922Z,5.60
2018-04-02T15:40:23.820Z,3.83
2018-04-02T15:42:51.827Z,3.33
2018-04-02T15:45:20.164Z,4.63
2018-04-02T15:47:48.151Z,8.90
2018-04-02T15:50:16.067Z,10.63
2018-04-02T15:52:44.039Z,4.60
2018-04-02T15:55:11.943Z,4.93
2018-04-02T15:57:41.806Z,3.33
2018-04-02T16:00:09.825Z,2.90
2018-04-02T16:02:37.795Z,3.60
2018-04-02T16:05:08.983Z,3.37
2018-04-02T16:07:36.922Z,2.73
2018-04-02T16:10:04.905Z,3.10
2018-04-02T16:12:33.648Z,7.53
2018-04-02T16:15:01.666Z,4.60
2018-04-02T16:17:29.614Z,2.90
2018-04-02T16:19:57.589Z,1.90
2018-04-02T16:22:25.811Z,4.10
2018-04-02T16:24:53.809Z,2.83
2018-04-02T16:27:21.793Z,4.67
2018-04-02T16:29:49.754Z,5.87
2018-04-02T16:32:17.713Z,3.20
2018-04-02T16:34:45.680Z,5.07
2018-04-02T16:37:13.610Z,3.77
2018-04-02T16:39:42.341Z,2.50
2018-04-02T16:42:10.251Z,6.00
2018-04-02T16:44:38.781Z,3.33
2018-04-02T16:47:07.580Z,5.27
2018-04-02T16:49:38.469Z,8.37
2018-04-02T16:52:07.422Z,4.67
2018-04-02T16:54:38.211Z,3.97
2018-04-02T16:57:07.516Z,6.67
2018-04-02T16:59:40.416Z,4.00
2018-04-02T17:02:08.432Z,5.00
2018-04-02T17:04:36.432Z,4.13
2018-04-02T17:07:04.391Z,5.40
2018-04-02T17:09:32.697Z,3.70
2018-04-02T17:12:01.603Z,4.03
2018-04-02T17:14:29.497Z,4.23
2018-04-02T17:16:57.443Z,3.08
2018-04-02T17:19:26.341Z,3.10
2018-04-02T17:21:55.154Z,7.67
2018-04-02T17:24:23.044Z,3.53
2018-04-02T17:26:51.800Z,6.30
2018-04-02T17:29:19.781Z,5.10
2018-04-02T17:31:47.736Z,5.03
2018-04-02T17:34:15.689Z,4.90
2018-04-02T17:36:43.589Z,6.35
2018-04-02T17:39:11.574Z,3.67
2018-04-02T17:41:39.545Z,3.28
2018-04-02T17:44:07.486Z,4.68
2018-04-02T17:46:35.392Z,4.15
2018-04-02T17:49:03.447Z,6.47
2018-04-02T17:51:31.368Z,3.37
2018-04-02T17:53:59.343Z,5.85
2018-04-02T17:56:27.264Z,5.22
2018-04-02T17:58:55.264Z,7.15
2018-04-02T18:01:23.983Z,3.80
2018-04-02T18:03:51.929Z,5.68
2018-04-02T18:06:20.584Z,6.10
2018-04-02T18:08:48.674Z,3.97
2018-04-02T18:11:17.354Z,7.65
2018-04-02T18:13:45.307Z,4.62
2018-04-02T18:16:15.140Z,3.85
2018-04-02T18:18:43.223Z,4.32
2018-04-02T18:21:11.898Z,3.08
2018-04-02T18:23:39.851Z,3.10
2018-04-02T18:26:07.783Z,5.90
2018-04-02T18:28:36.523Z,8.93
2018-04-02T18:31:04.511Z,5.07
2018-04-02T18:33:32.497Z,3.12
2018-04-02T18:36:01.433Z,9.20
2018-04-02T18:38:29.443Z,2.85
2018-04-02T18:40:58.124Z,3.10
2018-04-02T18:43:26.903Z,2.60
2018-04-02T18:45:55.332Z,3.45
2018-04-02T18:48:23.450Z,4.82
2018-04-02T18:50:53.063Z,5.28
2018-04-02T18:53:21.124Z,4.55
2018-04-02T18:55:50.568Z,3.12
2018-04-02T18:58:20.455Z,4.75
2018-04-02T19:00:52.493Z,2.70
2018-04-02T19:03:20.411Z,3.67
2018-04-02T19:05:49.136Z,3.90
2018-04-02T19:08:17.036Z,6.28
2018-04-02T19:10:44.986Z,2.75
2018-04-02T19:13:12.920Z,2.78
2018-04-02T19:15:40.927Z,12.32
2018-04-02T19:18:08.832Z,4.10
2018-04-02T19:20:36.848Z,5.93
2018-04-02T19:23:04.765Z,3.05
2018-04-02T19:25:32.733Z,2.95
2018-04-02T19:28:00.627Z,2.42
2018-04-02T19:30:28.681Z,4.93
2018-04-02T19:32:56.639Z,3.53
2018-04-02T19:35:24.609Z,2.47
2018-04-02T19:37:52.540Z,3.40
2018-04-02T19:40:20.603Z,1.60
2018-04-02T19:42:48.966Z,3.40
2018-04-02T19:45:17.707Z,3.83
2018-04-02T19:47:45.623Z,5.35
2018-04-02T19:50:14.368Z,1.70
2018-04-02T19:52:42.280Z,3.92
2018-04-02T19:55:10.252Z,3.55
2018-04-02T19:57:39.129Z,4.75
2018-04-02T20:00:07.244Z,4.85
2018-04-02T20:02:35.154Z,1.67
2018-04-02T20:05:03.143Z,7.70
2018-04-02T20:07:31.050Z,2.35
2018-04-02T20:09:58.994Z,6.72
2018-04-02T20:12:27.719Z,6.78
2018-04-02T20:14:55.681Z,2.53
2018-04-02T20:17:23.688Z,4.43
2018-04-02T20:19:52.771Z,2.15
2018-04-02T20:22:23.615Z,1.50
2018-04-02T20:24:51.767Z,2.53
2018-04-02T20:27:19.708Z,1.70
2018-04-02T20:29:48.466Z,1.05
2018-04-02T20:32:16.356Z,1.52
2018-04-02T20:34:45.047Z,3.40
2018-04-02T20:37:12.983Z,3.50
2018-04-02T20:39:40.864Z,1.75
2018-04-02T20:42:08.806Z,2.55
2018-04-02T20:44:36.760Z,1.92
2018-04-02T20:47:04.709Z,1.50
2018-04-02T20:49:32.603Z,3.25
2018-04-02T20:52:00.651Z,3.83
2018-04-02T20:54:28.579Z,3.20
2018-04-02T20:56:56.519Z,2.47
2018-04-02T20:59:24.404Z,1.75
2018-04-02T21:01:52.356Z,2.33
2018-04-02T21:04:20.240Z,2.85
2018-04-02T21:06:48.233Z,5.90
2018-04-02T21:09:16.119Z,3.25
2018-04-02T21:11:44.906Z,2.47
2018-04-02T21:14:13.553Z,2.70
2018-04-02T21:16:41.522Z,2.70
2018-04-02T21:19:09.415Z,3.35
2018-04-02T21:21:37.303Z,2.12
2018-04-02T21:24:06.037Z,2.70
2018-04-02T21:26:33.928Z,1.45
2018-04-02T21:29:01.870Z,1.70
2018-04-02T21:31:29.749Z,1.35
2018-04-02T21:33:57.693Z,2.08
2018-04-02T21:36:25.660Z,3.30
2018-04-02T21:38:53.607Z,1.98
2018-04-02T21:41:22.263Z,4.80
2018-04-02T21:43:50.201Z,1.83
2018-04-02T21:46:18.147Z,3.08
2018-04-02T21:48:46.110Z,1.70
2018-04-02T21:51:14.002Z,2.40
2018-04-02T21:53:41.994Z,3.60
2018-04-02T21:56:09.896Z,1.67
2018-04-02T21:58:38.053Z,2.40
2018-04-02T22:01:05.983Z,3.85
2018-04-02T22:03:33.882Z,3.72
2018-04-02T22:06:01.827Z,3.45
2018-04-02T22:08:35.366Z,1.80
2018-04-02T22:11:05.220Z,2.67
2018-04-02T22:13:34.395Z,1.73
2018-04-02T22:16:02.921Z,1.87
2018-04-02T22:18:31.417Z,1.65
2018-04-02T22:21:00.353Z,2.65
2018-04-02T22:23:28.984Z,1.20
2018-04-02T22:25:57.635Z,1.90
2018-04-02T22:28:26.914Z,2.47
2018-04-02T22:30:57.056Z,1.73
2018-04-02T22:33:25.931Z,1.83
2018-04-02T22:35:54.366Z,2.28
2018-04-02T22:38:22.843Z,1.10
2018-04-02T22:40:53.925Z,3.28
2018-04-02T22:43:23.359Z,1.40
2018-04-02T22:45:51.902Z,3.62
2018-04-02T22:48:20.666Z,2.10
2018-04-02T22:50:49.524Z,2.92
2018-04-02T22:53:18.634Z,2.17
2018-04-02T22:55:47.860Z,1.77
2018-04-02T22:58:16.672Z,1.70
2018-04-02T23:00:45.122Z,1.60
2018-04-02T23:03:13.427Z,2.17
2018-04-02T23:05:42.518Z,1.58
2018-04-02T23:08:11.230Z,1.92
2018-04-02T23:10:40.766Z,3.33
2018-04-02T23:13:09.743Z,1.33
2018-04-02T23:15:40.050Z,3.83
2018-04-02T23:18:07.927Z,6.80
2018-04-02T23:20:37.672Z,1.55
2018-04-02T23:23:07.833Z,2.12
2018-04-02T23:25:36.847Z,4.45
2018-04-02T23:28:05.011Z,1.73
2018-04-02T23:30:33.736Z,3.30
2018-04-02T23:33:03.147Z,1.50
2018-04-02T23:35:32.568Z,2.85
2018-04-02T23:38:00.861Z,3.15
2018-04-02T23:40:29.280Z,2.55
2018-04-02T23:42:58.355Z,1.48
2018-04-02T23:45:28.005Z,3.12
2018-04-02T23:47:55.968Z,1.62
2018-04-02T23:50:24.469Z,1.83
2018-04-02T23:52:53.104Z,1.23
2018-04-02T23:55:21.583Z,1.70
2018-04-02T23:57:50.255Z,2.70
